sensor_id;sensor_type;location;lat;lon;timestamp;P1;durP1;ratioP1;P2;durP2;ratioP2
15246;SDS011;7726;48.820;9.248;2022-07-23T00:01:18;4.45;;;4.00;;
15246;SDS011;7726;48.820;9.248;2022-07-23T00:03:45;5.28;;;4.43;;
15246;SDS011;7726;48.820;9.248;2022-07-23T00:06:12;4.20;;;3.90;;
15246;SDS011;7726;48.820;9.248;2022-07-23T00:08:41;4.30;;;3.90;;
15246;SDS011;7726;48.820;9.248;2022-07-23T00:11:08;4.65;;;3.90;;
15246;SDS011;7726;48.820;9.248;2022-07-23T00:13:35;5.28;;;4.20;;
15246;SDS011;7726;48.820;9.248;2022-07-23T00:16:02;4.55;;;4.18;;
15246;SDS011;7726;48.820;9.248;2022-07-23T00:18:29;4.57;;;4.07;;
15246;SDS011;7726;48.820;9.248;2022-07-23T00:20:57;4.63;;;4.13;;
15246;SDS011;7726;48.820;9.248;2022-07-23T00:23:24;4.25;;;3.92;;
15246;SDS011;7726;48.820;9.248;2022-07-23T00:25:53;7.80;;;4.50;;
15246;SDS011;7726;48.820;9.248;2022-07-23T00:28:21;4.45;;;4.00;;
15246;SDS011;7726;48.820;9.248;2022-07-23T00:30:48;4.28;;;3.88;;
15246;SDS011;7726;48.820;9.248;2022-07-23T00:33:15;5.28;;;3.72;;
15246;SDS011;7726;48.820;9.248;2022-07-23T00:35:42;4.50;;;4.10;;
15246;SDS011;7726;48.820;9.248;2022-07-23T00:38:09;4.40;;;4.00;;
15246;SDS011;7726;48.820;9.248;2022-07-23T00:40:37;4.57;;;3.95;;
15246;SDS011;7726;48.820;9.248;2022-07-23T00:43:06;4.28;;;3.88;;
15246;SDS011;7726;48.820;9.248;2022-07-23T00:45:33;4.03;;;3.38;;
15246;SDS011;7726;48.820;9.248;2022-07-23T00:48:00;3.97;;;3.60;;
15246;SDS011;7726;48.820;9.248;2022-07-23T00:50:28;3.60;;;3.40;;
15246;SDS011;7726;48.820;9.248;2022-07-23T00:52:55;4.43;;;3.97;;
15246;SDS011;7726;48.820;9.248;2022-07-23T00:55:23;3.50;;;3.30;;
15246;SDS011;7726;48.820;9.248;2022-07-23T00:57:50;3.70;;;3.40;;
15246;SDS011;7726;48.820;9.248;2022-07-23T01:00:18;3.95;;;3.60;;
15246;SDS011;7726;48.820;9.248;2022-07-23T01:02:46;3.47;;;3.22;;
15246;SDS011;7726;48.820;9.248;2022-07-23T01:05:13;3.58;;;3.38;;
15246;SDS011;7726;48.820;9.248;2022-07-23T01:07:40;4.03;;;3.63;;
15246;SDS011;7726;48.820;9.248;2022-07-23T01:10:07;4.15;;;3.75;;
15246;SDS011;7726;48.820;9.248;2022-07-23T01:12:48;4.18;;;3.88;;
15246;SDS011;7726;48.820;9.248;2022-07-23T01:15:15;3.90;;;3.58;;
15246;SDS011;7726;48.820;9.248;2022-07-23T01:17:44;4.10;;;3.67;;
15246;SDS011;7726;48.820;9.248;2022-07-23T01:20:11;3.83;;;3.53;;
15246;SDS011;7726;48.820;9.248;2022-07-23T01:22:39;4.28;;;3.90;;
15246;SDS011;7726;48.820;9.248;2022-07-23T01:25:07;3.85;;;3.55;;
15246;SDS011;7726;48.820;9.248;2022-07-23T01:27:34;4.10;;;3.70;;
15246;SDS011;7726;48.820;9.248;2022-07-23T01:30:01;4.05;;;3.75;;
15246;SDS011;7726;48.820;9.248;2022-07-23T01:32:29;3.72;;;3.42;;
15246;SDS011;7726;48.820;9.248;2022-07-23T01:34:56;3.55;;;3.35;;
15246;SDS011;7726;48.820;9.248;2022-07-23T01:37:23;6.47;;;3.83;;
15246;SDS011;7726;48.820;9.248;2022-07-23T01:39:52;3.65;;;3.35;;
15246;SDS011;7726;48.820;9.248;2022-07-23T01:42:19;3.85;;;3.55;;
15246;SDS011;7726;48.820;9.248;2022-07-23T01:44:46;4.05;;;3.75;;
15246;SDS011;7726;48.820;9.248;2022-07-23T01:47:13;3.50;;;3.20;;
15246;SDS011;7726;48.820;9.248;2022-07-23T01:49:40;4.03;;;3.72;;
15246;SDS011;7726;48.820;9.248;2022-07-23T01:52:07;3.45;;;3.10;;
15246;SDS011;7726;48.820;9.248;2022-07-23T01:54:36;3.50;;;3.20;;
15246;SDS011;7726;48.820;9.248;2022-07-23T01:57:04;3.65;;;3.35;;
15246;SDS011;7726;48.820;9.248;2022-07-23T01:59:32;4.05;;;3.33;;
15246;SDS011;7726;48.820;9.248;2022-07-23T02:01:59;4.05;;;3.72;;
15246;SDS011;7726;48.820;9.248;2022-07-23T02:04:26;3.58;;;3.38;;
15246;SDS011;7726;48.820;9.248;2022-07-23T02:06:53;4.22;;;3.78;;
15246;SDS011;7726;48.820;9.248;2022-07-23T02:09:20;4.00;;;3.70;;
15246;SDS011;7726;48.820;9.248;2022-07-23T02:11:47;4.60;;;4.13;;
15246;SDS011;7726;48.820;9.248;2022-07-23T02:14:16;4.20;;;3.78;;
15246;SDS011;7726;48.820;9.248;2022-07-23T02:16:43;4.45;;;3.85;;
15246;SDS011;7726;48.820;9.248;2022-07-23T02:19:10;3.65;;;3.35;;
15246;SDS011;7726;48.820;9.248;2022-07-23T02:21:37;4.07;;;3.60;;
15246;SDS011;7726;48.820;9.248;2022-07-23T02:24:05;4.25;;;3.95;;
15246;SDS011;7726;48.820;9.248;2022-07-23T02:26:32;4.38;;;3.60;;
15246;SDS011;7726;48.820;9.248;2022-07-23T02:29:00;3.90;;;3.58;;
15246;SDS011;7726;48.820;9.248;2022-07-23T02:31:29;4.00;;;3.70;;
15246;SDS011;7726;48.820;9.248;2022-07-23T02:33:56;4.00;;;3.70;;
15246;SDS011;7726;48.820;9.248;2022-07-23T02:36:23;3.70;;;3.50;;
15246;SDS011;7726;48.820;9.248;2022-07-23T02:38:50;4.25;;;3.85;;
15246;SDS011;7726;48.820;9.248;2022-07-23T02:41:17;4.15;;;3.85;;
15246;SDS011;7726;48.820;9.248;2022-07-23T02:43:44;4.75;;;3.83;;
15246;SDS011;7726;48.820;9.248;2022-07-23T02:46:11;4.97;;;3.70;;
15246;SDS011;7726;48.820;9.248;2022-07-23T02:48:40;4.10;;;3.70;;
15246;SDS011;7726;48.820;9.248;2022-07-23T02:51:07;3.72;;;3.42;;
15246;SDS011;7726;48.820;9.248;2022-07-23T02:53:34;3.55;;;3.35;;
15246;SDS011;7726;48.820;9.248;2022-07-23T02:56:01;3.85;;;3.55;;
15246;SDS011;7726;48.820;9.248;2022-07-23T02:58:29;4.40;;;4.00;;
15246;SDS011;7726;48.820;9.248;2022-07-23T03:00:56;4.38;;;4.05;;
15246;SDS011;7726;48.820;9.248;2022-07-23T03:03:23;4.15;;;3.85;;
15246;SDS011;7726;48.820;9.248;2022-07-23T03:05:51;4.78;;;4.07;;
15246;SDS011;7726;48.820;9.248;2022-07-23T03:08:18;4.10;;;3.80;;
15246;SDS011;7726;48.820;9.248;2022-07-23T03:10:45;3.83;;;3.53;;
15246;SDS011;7726;48.820;9.248;2022-07-23T03:13:13;4.68;;;4.20;;
15246;SDS011;7726;48.820;9.248;2022-07-23T03:15:40;4.13;;;3.83;;
15246;SDS011;7726;48.820;9.248;2022-07-23T03:18:07;4.47;;;3.83;;
15246;SDS011;7726;48.820;9.248;2022-07-23T03:20:34;4.13;;;3.63;;
15246;SDS011;7726;48.820;9.248;2022-07-23T03:23:02;4.97;;;4.22;;
15246;SDS011;7726;48.820;9.248;2022-07-23T03:25:30;4.35;;;4.00;;
15246;SDS011;7726;48.820;9.248;2022-07-23T03:27:57;4.40;;;4.00;;
15246;SDS011;7726;48.820;9.248;2022-07-23T03:30:24;5.85;;;3.75;;
15246;SDS011;7726;48.820;9.248;2022-07-23T03:32:51;5.75;;;4.20;;
15246;SDS011;7726;48.820;9.248;2022-07-23T03:35:18;5.85;;;5.15;;
15246;SDS011;7726;48.820;9.248;2022-07-23T03:37:45;5.35;;;4.32;;
15246;SDS011;7726;48.820;9.248;2022-07-23T03:40:14;7.43;;;5.30;;
15246;SDS011;7726;48.820;9.248;2022-07-23T03:42:41;6.55;;;5.50;;
15246;SDS011;7726;48.820;9.248;2022-07-23T03:45:08;5.50;;;4.88;;
15246;SDS011;7726;48.820;9.248;2022-07-23T03:47:36;4.63;;;4.20;;
15246;SDS011;7726;48.820;9.248;2022-07-23T03:50:04;4.72;;;4.22;;
15246;SDS011;7726;48.820;9.248;2022-07-23T03:52:31;4.70;;;4.30;;
15246;SDS011;7726;48.820;9.248;2022-07-23T03:54:58;4.72;;;4.28;;
15246;SDS011;7726;48.820;9.248;2022-07-23T03:57:27;4.82;;;4.35;;
15246;SDS011;7726;48.820;9.248;2022-07-23T03:59:54;3.75;;;3.45;;
15246;SDS011;7726;48.820;9.248;2022-07-23T04:02:21;4.47;;;4.07;;
15246;SDS011;7726;48.820;9.248;2022-07-23T04:04:48;4.60;;;4.20;;
15246;SDS011;7726;48.820;9.248;2022-07-23T04:07:15;4.95;;;4.55;;
15246;SDS011;7726;48.820;9.248;2022-07-23T04:09:43;6.05;;;4.80;;
15246;SDS011;7726;48.820;9.248;2022-07-23T04:12:10;5.20;;;4.70;;
15246;SDS011;7726;48.820;9.248;2022-07-23T04:14:39;4.90;;;4.47;;
15246;SDS011;7726;48.820;9.248;2022-07-23T04:17:06;5.32;;;4.82;;
15246;SDS011;7726;48.820;9.248;2022-07-23T04:19:33;5.07;;;4.50;;
15246;SDS011;7726;48.820;9.248;2022-07-23T04:22:04;4.78;;;4.30;;
15246;SDS011;7726;48.820;9.248;2022-07-23T04:24:32;5.43;;;4.22;;
15246;SDS011;7726;48.820;9.248;2022-07-23T04:26:59;4.85;;;4.10;;
15246;SDS011;7726;48.820;9.248;2022-07-23T04:29:26;4.53;;;4.13;;
15246;SDS011;7726;48.820;9.248;2022-07-23T04:31:55;4.30;;;3.90;;
15246;SDS011;7726;48.820;9.248;2022-07-23T04:34:22;4.43;;;4.05;;
15246;SDS011;7726;48.820;9.248;2022-07-23T04:36:51;4.97;;;4.55;;
15246;SDS011;7726;48.820;9.248;2022-07-23T04:39:18;4.68;;;4.32;;
15246;SDS011;7726;48.820;9.248;2022-07-23T04:41:46;4.65;;;4.20;;
15246;SDS011;7726;48.820;9.248;2022-07-23T04:44:13;5.43;;;4.40;;
15246;SDS011;7726;48.820;9.248;2022-07-23T04:46:40;4.95;;;4.15;;
15246;SDS011;7726;48.820;9.248;2022-07-23T04:49:08;6.28;;;4.43;;
15246;SDS011;7726;48.820;9.248;2022-07-23T04:51:36;4.70;;;4.25;;
15246;SDS011;7726;48.820;9.248;2022-07-23T04:54:03;4.22;;;3.83;;
15246;SDS011;7726;48.820;9.248;2022-07-23T04:56:30;5.03;;;4.47;;
15246;SDS011;7726;48.820;9.248;2022-07-23T04:58:57;5.15;;;4.70;;
15246;SDS011;7726;48.820;9.248;2022-07-23T05:01:25;5.07;;;4.47;;
15246;SDS011;7726;48.820;9.248;2022-07-23T05:03:52;5.00;;;4.38;;
15246;SDS011;7726;48.820;9.248;2022-07-23T05:06:20;4.47;;;4.13;;
15246;SDS011;7726;48.820;9.248;2022-07-23T05:08:47;4.88;;;4.47;;
15246;SDS011;7726;48.820;9.248;2022-07-23T05:11:15;5.72;;;4.15;;
15246;SDS011;7726;48.820;9.248;2022-07-23T05:13:42;4.75;;;4.32;;
15246;SDS011;7726;48.820;9.248;2022-07-23T05:16:09;4.72;;;4.32;;
15246;SDS011;7726;48.820;9.248;2022-07-23T05:18:36;4.88;;;4.47;;
15246;SDS011;7726;48.820;9.248;2022-07-23T05:21:03;4.80;;;4.15;;
15246;SDS011;7726;48.820;9.248;2022-07-23T05:23:32;7.07;;;3.78;;
15246;SDS011;7726;48.820;9.248;2022-07-23T05:25:59;5.20;;;4.43;;
15246;SDS011;7726;48.820;9.248;2022-07-23T05:28:26;4.43;;;4.10;;
15246;SDS011;7726;48.820;9.248;2022-07-23T05:30:54;6.10;;;4.65;;
15246;SDS011;7726;48.820;9.248;2022-07-23T05:33:21;6.30;;;4.28;;
15246;SDS011;7726;48.820;9.248;2022-07-23T05:35:48;4.88;;;4.38;;
15246;SDS011;7726;48.820;9.248;2022-07-23T05:38:15;4.40;;;4.05;;
15246;SDS011;7726;48.820;9.248;2022-07-23T05:40:44;4.35;;;3.97;;
15246;SDS011;7726;48.820;9.248;2022-07-23T05:43:11;5.00;;;4.65;;
15246;SDS011;7726;48.820;9.248;2022-07-23T05:45:38;4.75;;;4.45;;
15246;SDS011;7726;48.820;9.248;2022-07-23T05:48:05;5.40;;;4.93;;
15246;SDS011;7726;48.820;9.248;2022-07-23T05:50:32;5.32;;;4.38;;
15246;SDS011;7726;48.820;9.248;2022-07-23T05:52:59;5.35;;;4.15;;
15246;SDS011;7726;48.820;9.248;2022-07-23T05:55:27;4.97;;;4.57;;
15246;SDS011;7726;48.820;9.248;2022-07-23T05:57:58;5.43;;;4.97;;
15246;SDS011;7726;48.820;9.248;2022-07-23T06:00:25;5.10;;;4.70;;
15246;SDS011;7726;48.820;9.248;2022-07-23T06:02:53;5.07;;;4.35;;
15246;SDS011;7726;48.820;9.248;2022-07-23T06:05:20;4.63;;;4.22;;
15246;SDS011;7726;48.820;9.248;2022-07-23T06:07:47;5.18;;;4.65;;
15246;SDS011;7726;48.820;9.248;2022-07-23T06:10:15;5.22;;;4.82;;
15246;SDS011;7726;48.820;9.248;2022-07-23T06:12:42;6.55;;;5.15;;
15246;SDS011;7726;48.820;9.248;2022-07-23T06:15:10;4.50;;;4.10;;
15246;SDS011;7726;48.820;9.248;2022-07-23T06:17:38;4.80;;;4.32;;
15246;SDS011;7726;48.820;9.248;2022-07-23T06:20:06;4.63;;;4.22;;
15246;SDS011;7726;48.820;9.248;2022-07-23T06:22:33;4.95;;;4.32;;
15246;SDS011;7726;48.820;9.248;2022-07-23T06:25:00;4.97;;;4.47;;
15246;SDS011;7726;48.820;9.248;2022-07-23T06:27:27;5.72;;;5.22;;
15246;SDS011;7726;48.820;9.248;2022-07-23T06:29:55;5.15;;;4.57;;
15246;SDS011;7726;48.820;9.248;2022-07-23T06:32:23;5.38;;;4.97;;
15246;SDS011;7726;48.820;9.248;2022-07-23T06:34:50;5.22;;;4.80;;
15246;SDS011;7726;48.820;9.248;2022-07-23T06:37:18;4.72;;;4.38;;
15246;SDS011;7726;48.820;9.248;2022-07-23T06:39:45;5.10;;;4.70;;
15246;SDS011;7726;48.820;9.248;2022-07-23T06:42:12;6.45;;;4.90;;
15246;SDS011;7726;48.820;9.248;2022-07-23T06:44:40;4.88;;;4.32;;
15246;SDS011;7726;48.820;9.248;2022-07-23T06:47:07;5.65;;;4.90;;
15246;SDS011;7726;48.820;9.248;2022-07-23T06:49:35;5.00;;;4.60;;
15246;SDS011;7726;48.820;9.248;2022-07-23T06:52:03;6.20;;;4.95;;
15246;SDS011;7726;48.820;9.248;2022-07-23T06:54:30;7.75;;;5.00;;
15246;SDS011;7726;48.820;9.248;2022-07-23T06:56:57;5.22;;;4.78;;
15246;SDS011;7726;48.820;9.248;2022-07-23T06:59:24;5.60;;;5.10;;
15246;SDS011;7726;48.820;9.248;2022-07-23T07:01:51;5.68;;;5.18;;
15246;SDS011;7726;48.820;9.248;2022-07-23T07:04:19;5.85;;;5.20;;
15246;SDS011;7726;48.820;9.248;2022-07-23T07:06:47;5.10;;;4.70;;
15246;SDS011;7726;48.820;9.248;2022-07-23T07:09:14;6.13;;;5.28;;
15246;SDS011;7726;48.820;9.248;2022-07-23T07:11:43;5.32;;;4.93;;
15246;SDS011;7726;48.820;9.248;2022-07-23T07:14:10;5.30;;;4.80;;
15246;SDS011;7726;48.820;9.248;2022-07-23T07:16:37;5.72;;;5.22;;
15246;SDS011;7726;48.820;9.248;2022-07-23T07:19:04;4.97;;;4.57;;
15246;SDS011;7726;48.820;9.248;2022-07-23T07:21:31;6.25;;;5.65;;
15246;SDS011;7726;48.820;9.248;2022-07-23T07:24:00;5.97;;;5.40;;
15246;SDS011;7726;48.820;9.248;2022-07-23T07:26:27;5.30;;;4.90;;
15246;SDS011;7726;48.820;9.248;2022-07-23T07:28:54;6.15;;;4.70;;
15246;SDS011;7726;48.820;9.248;2022-07-23T07:31:21;5.13;;;4.72;;
15246;SDS011;7726;48.820;9.248;2022-07-23T07:33:48;5.18;;;4.68;;
15246;SDS011;7726;48.820;9.248;2022-07-23T07:36:16;5.57;;;4.90;;
15246;SDS011;7726;48.820;9.248;2022-07-23T07:38:43;5.32;;;4.93;;
15246;SDS011;7726;48.820;9.248;2022-07-23T07:41:11;7.85;;;5.25;;
15246;SDS011;7726;48.820;9.248;2022-07-23T07:43:38;5.00;;;4.50;;
15246;SDS011;7726;48.820;9.248;2022-07-23T07:46:06;5.50;;;5.10;;
15246;SDS011;7726;48.820;9.248;2022-07-23T07:48:35;5.35;;;4.95;;
15246;SDS011;7726;48.820;9.248;2022-07-23T07:51:02;5.70;;;5.15;;
15246;SDS011;7726;48.820;9.248;2022-07-23T07:53:30;5.35;;;4.72;;
15246;SDS011;7726;48.820;9.248;2022-07-23T07:55:57;5.25;;;4.75;;
15246;SDS011;7726;48.820;9.248;2022-07-23T07:58:25;5.57;;;5.07;;
15246;SDS011;7726;48.820;9.248;2022-07-23T08:00:53;5.10;;;4.63;;
15246;SDS011;7726;48.820;9.248;2022-07-23T08:03:20;6.00;;;5.22;;
15246;SDS011;7726;48.820;9.248;2022-07-23T08:05:47;5.47;;;5.00;;
15246;SDS011;7726;48.820;9.248;2022-07-23T08:08:14;5.28;;;4.78;;
15246;SDS011;7726;48.820;9.248;2022-07-23T08:10:42;5.28;;;4.88;;
15246;SDS011;7726;48.820;9.248;2022-07-23T08:13:11;6.05;;;5.55;;
15246;SDS011;7726;48.820;9.248;2022-07-23T08:15:40;5.15;;;4.65;;
15246;SDS011;7726;48.820;9.248;2022-07-23T08:18:08;5.25;;;4.82;;
15246;SDS011;7726;48.820;9.248;2022-07-23T08:20:35;5.35;;;4.85;;
15246;SDS011;7726;48.820;9.248;2022-07-23T08:23:03;5.20;;;4.80;;
15246;SDS011;7726;48.820;9.248;2022-07-23T08:25:31;5.95;;;5.43;;
15246;SDS011;7726;48.820;9.248;2022-07-23T08:27:59;5.03;;;4.63;;
15246;SDS011;7726;48.820;9.248;2022-07-23T08:30:27;5.38;;;4.88;;
15246;SDS011;7726;48.820;9.248;2022-07-23T08:32:56;5.47;;;5.03;;
15246;SDS011;7726;48.820;9.248;2022-07-23T08:35:25;5.40;;;5.00;;
15246;SDS011;7726;48.820;9.248;2022-07-23T08:37:53;5.70;;;5.30;;
15246;SDS011;7726;48.820;9.248;2022-07-23T08:40:20;5.28;;;4.88;;
15246;SDS011;7726;48.820;9.248;2022-07-23T08:42:48;5.05;;;4.68;;
15246;SDS011;7726;48.820;9.248;2022-07-23T08:45:16;5.07;;;4.57;;
15246;SDS011;7726;48.820;9.248;2022-07-23T08:47:44;5.28;;;4.85;;
15246;SDS011;7726;48.820;9.248;2022-07-23T08:50:13;5.03;;;4.63;;
15246;SDS011;7726;48.820;9.248;2022-07-23T08:52:40;6.00;;;4.95;;
15246;SDS011;7726;48.820;9.248;2022-07-23T08:55:07;5.07;;;4.53;;
15246;SDS011;7726;48.820;9.248;2022-07-23T08:57:35;5.10;;;4.60;;
15246;SDS011;7726;48.820;9.248;2022-07-23T09:00:03;5.32;;;4.93;;
15246;SDS011;7726;48.820;9.248;2022-07-23T09:02:31;4.80;;;4.40;;
15246;SDS011;7726;48.820;9.248;2022-07-23T09:04:58;5.65;;;5.18;;
15246;SDS011;7726;48.820;9.248;2022-07-23T09:07:27;4.55;;;4.15;;
15246;SDS011;7726;48.820;9.248;2022-07-23T09:10:04;4.68;;;4.28;;
15246;SDS011;7726;48.820;9.248;2022-07-23T09:12:31;4.60;;;4.20;;
15246;SDS011;7726;48.820;9.248;2022-07-23T09:15:03;4.60;;;4.20;;
15246;SDS011;7726;48.820;9.248;2022-07-23T09:17:36;5.50;;;4.47;;
15246;SDS011;7726;48.820;9.248;2022-07-23T09:20:10;4.68;;;4.28;;
15246;SDS011;7726;48.820;9.248;2022-07-23T09:22:39;4.85;;;4.32;;
15246;SDS011;7726;48.820;9.248;2022-07-23T09:25:08;5.07;;;4.68;;
15246;SDS011;7726;48.820;9.248;2022-07-23T09:27:45;6.22;;;4.47;;
15246;SDS011;7726;48.820;9.248;2022-07-23T09:30:13;4.95;;;4.55;;
15246;SDS011;7726;48.820;9.248;2022-07-23T09:32:40;5.30;;;4.43;;
15246;SDS011;7726;48.820;9.248;2022-07-23T09:35:07;4.28;;;3.97;;
15246;SDS011;7726;48.820;9.248;2022-07-23T09:37:35;4.43;;;4.03;;
15246;SDS011;7726;48.820;9.248;2022-07-23T09:40:07;5.18;;;4.57;;
15246;SDS011;7726;48.820;9.248;2022-07-23T09:42:36;4.65;;;4.25;;
15246;SDS011;7726;48.820;9.248;2022-07-23T09:45:04;5.72;;;5.15;;
15246;SDS011;7726;48.820;9.248;2022-07-23T09:47:38;4.38;;;4.00;;
15246;SDS011;7726;48.820;9.248;2022-07-23T09:50:06;4.72;;;4.32;;
15246;SDS011;7726;48.820;9.248;2022-07-23T09:52:35;4.72;;;4.43;;
15246;SDS011;7726;48.820;9.248;2022-07-23T09:55:04;4.72;;;4.32;;
15246;SDS011;7726;48.820;9.248;2022-07-23T09:57:33;5.75;;;4.15;;
15246;SDS011;7726;48.820;9.248;2022-07-23T10:00:01;4.97;;;4.57;;
15246;SDS011;7726;48.820;9.248;2022-07-23T10:02:29;5.07;;;4.53;;
15246;SDS011;7726;48.820;9.248;2022-07-23T10:04:58;5.45;;;5.00;;
15246;SDS011;7726;48.820;9.248;2022-07-23T10:07:26;5.28;;;4.80;;
15246;SDS011;7726;48.820;9.248;2022-07-23T10:09:56;6.10;;;4.63;;
15246;SDS011;7726;48.820;9.248;2022-07-23T10:12:25;4.90;;;4.43;;
15246;SDS011;7726;48.820;9.248;2022-07-23T10:15:07;4.68;;;4.22;;
15246;SDS011;7726;48.820;9.248;2022-07-23T10:17:35;4.65;;;4.22;;
15246;SDS011;7726;48.820;9.248;2022-07-23T10:20:02;4.72;;;4.32;;
15246;SDS011;7726;48.820;9.248;2022-07-23T10:22:30;4.70;;;4.30;;
15246;SDS011;7726;48.820;9.248;2022-07-23T10:25:05;4.72;;;4.25;;
15246;SDS011;7726;48.820;9.248;2022-07-23T10:27:42;4.30;;;4.00;;
15246;SDS011;7726;48.820;9.248;2022-07-23T10:30:12;4.80;;;4.38;;
15246;SDS011;7726;48.820;9.248;2022-07-23T10:32:44;5.03;;;4.63;;
15246;SDS011;7726;48.820;9.248;2022-07-23T10:35:15;4.65;;;4.10;;
15246;SDS011;7726;48.820;9.248;2022-07-23T10:37:47;4.90;;;4.50;;
15246;SDS011;7726;48.820;9.248;2022-07-23T10:40:16;5.32;;;4.90;;
15246;SDS011;7726;48.820;9.248;2022-07-23T10:42:44;4.97;;;4.47;;
15246;SDS011;7726;48.820;9.248;2022-07-23T10:48:14;4.40;;;4.03;;
15246;SDS011;7726;48.820;9.248;2022-07-23T10:50:42;4.93;;;4.53;;
15246;SDS011;7726;48.820;9.248;2022-07-23T10:53:15;4.63;;;4.32;;
15246;SDS011;7726;48.820;9.248;2022-07-23T10:55:44;4.43;;;4.10;;
15246;SDS011;7726;48.820;9.248;2022-07-23T10:58:12;4.75;;;4.38;;
15246;SDS011;7726;48.820;9.248;2022-07-23T11:00:44;4.93;;;4.20;;
15246;SDS011;7726;48.820;9.248;2022-07-23T11:03:34;4.97;;;4.53;;
15246;SDS011;7726;48.820;9.248;2022-07-23T11:06:03;4.38;;;3.97;;
15246;SDS011;7726;48.820;9.248;2022-07-23T11:08:30;5.07;;;4.50;;
15246;SDS011;7726;48.820;9.248;2022-07-23T11:11:10;5.13;;;4.28;;
15246;SDS011;7726;48.820;9.248;2022-07-23T11:13:39;4.80;;;4.35;;
15246;SDS011;7726;48.820;9.248;2022-07-23T11:16:17;5.15;;;4.75;;
15246;SDS011;7726;48.820;9.248;2022-07-23T11:19:04;6.32;;;4.68;;
15246;SDS011;7726;48.820;9.248;2022-07-23T11:21:45;5.05;;;4.53;;
15246;SDS011;7726;48.820;9.248;2022-07-23T11:24:13;5.03;;;4.63;;
15246;SDS011;7726;48.820;9.248;2022-07-23T11:26:40;4.82;;;4.38;;
15246;SDS011;7726;48.820;9.248;2022-07-23T11:31:53;4.88;;;4.47;;
15246;SDS011;7726;48.820;9.248;2022-07-23T11:34:29;4.80;;;4.40;;
15246;SDS011;7726;48.820;9.248;2022-07-23T11:36:56;4.90;;;4.60;;
15246;SDS011;7726;48.820;9.248;2022-07-23T11:39:24;4.70;;;4.30;;
15246;SDS011;7726;48.820;9.248;2022-07-23T11:41:52;4.43;;;4.10;;
15246;SDS011;7726;48.820;9.248;2022-07-23T11:44:25;4.47;;;4.18;;
15246;SDS011;7726;48.820;9.248;2022-07-23T11:46:56;4.30;;;4.00;;
15246;SDS011;7726;48.820;9.248;2022-07-23T11:49:23;5.13;;;4.65;;
15246;SDS011;7726;48.820;9.248;2022-07-23T11:52:05;4.45;;;4.05;;
15246;SDS011;7726;48.820;9.248;2022-07-23T11:54:32;4.32;;;4.00;;
15246;SDS011;7726;48.820;9.248;2022-07-23T11:57:00;5.35;;;4.95;;
15246;SDS011;7726;48.820;9.248;2022-07-23T11:59:29;4.85;;;4.45;;
15246;SDS011;7726;48.820;9.248;2022-07-23T12:01:57;4.30;;;4.00;;
15246;SDS011;7726;48.820;9.248;2022-07-23T12:04:28;4.38;;;4.07;;
15246;SDS011;7726;48.820;9.248;2022-07-23T12:07:04;4.85;;;4.50;;
15246;SDS011;7726;48.820;9.248;2022-07-23T12:09:49;5.07;;;4.57;;
15246;SDS011;7726;48.820;9.248;2022-07-23T12:12:16;4.78;;;4.43;;
15246;SDS011;7726;48.820;9.248;2022-07-23T12:14:50;4.70;;;4.40;;
15246;SDS011;7726;48.820;9.248;2022-07-23T12:17:17;5.00;;;4.60;;
15246;SDS011;7726;48.820;9.248;2022-07-23T12:19:45;5.10;;;4.70;;
15246;SDS011;7726;48.820;9.248;2022-07-23T12:22:13;4.53;;;4.13;;
15246;SDS011;7726;48.820;9.248;2022-07-23T12:24:54;4.63;;;4.22;;
15246;SDS011;7726;48.820;9.248;2022-07-23T12:27:21;5.13;;;4.72;;
15246;SDS011;7726;48.820;9.248;2022-07-23T12:29:48;5.18;;;4.68;;
15246;SDS011;7726;48.820;9.248;2022-07-23T12:32:19;5.07;;;4.68;;
15246;SDS011;7726;48.820;9.248;2022-07-23T12:34:47;5.25;;;4.43;;
15246;SDS011;7726;48.820;9.248;2022-07-23T12:37:30;5.32;;;4.93;;
15246;SDS011;7726;48.820;9.248;2022-07-23T12:39:58;5.13;;;4.72;;
15246;SDS011;7726;48.820;9.248;2022-07-23T12:42:25;5.18;;;4.78;;
15246;SDS011;7726;48.820;9.248;2022-07-23T12:45:06;5.35;;;4.88;;
15246;SDS011;7726;48.820;9.248;2022-07-23T12:50:30;5.78;;;4.78;;
15246;SDS011;7726;48.820;9.248;2022-07-23T12:53:02;5.72;;;4.70;;
15246;SDS011;7726;48.820;9.248;2022-07-23T12:55:30;4.90;;;4.50;;
15246;SDS011;7726;48.820;9.248;2022-07-23T12:58:02;5.78;;;5.25;;
15246;SDS011;7726;48.820;9.248;2022-07-23T13:00:30;5.00;;;4.60;;
15246;SDS011;7726;48.820;9.248;2022-07-23T13:02:57;5.18;;;4.68;;
15246;SDS011;7726;48.820;9.248;2022-07-23T13:05:25;5.63;;;5.18;;
15246;SDS011;7726;48.820;9.248;2022-07-23T13:07:52;5.50;;;5.10;;
15246;SDS011;7726;48.820;9.248;2022-07-23T13:10:20;5.35;;;4.95;;
15246;SDS011;7726;48.820;9.248;2022-07-23T13:12:48;5.88;;;5.45;;
15246;SDS011;7726;48.820;9.248;2022-07-23T13:15:15;5.80;;;5.30;;
15246;SDS011;7726;48.820;9.248;2022-07-23T13:17:42;5.47;;;4.97;;
15246;SDS011;7726;48.820;9.248;2022-07-23T13:20:10;6.25;;;5.63;;
15246;SDS011;7726;48.820;9.248;2022-07-23T13:22:38;6.25;;;5.28;;
15246;SDS011;7726;48.820;9.248;2022-07-23T13:25:05;5.68;;;5.18;;
15246;SDS011;7726;48.820;9.248;2022-07-23T13:27:34;5.30;;;4.90;;
15246;SDS011;7726;48.820;9.248;2022-07-23T13:30:01;5.35;;;4.95;;
15246;SDS011;7726;48.820;9.248;2022-07-23T13:32:29;5.95;;;5.00;;
15246;SDS011;7726;48.820;9.248;2022-07-23T13:34:56;4.93;;;4.60;;
15246;SDS011;7726;48.820;9.248;2022-07-23T13:37:23;5.38;;;4.97;;
15246;SDS011;7726;48.820;9.248;2022-07-23T13:39:51;6.32;;;5.75;;
15246;SDS011;7726;48.820;9.248;2022-07-23T13:42:18;5.75;;;5.35;;
15246;SDS011;7726;48.820;9.248;2022-07-23T13:44:47;5.55;;;4.95;;
15246;SDS011;7726;48.820;9.248;2022-07-23T13:47:14;5.97;;;5.55;;
15246;SDS011;7726;48.820;9.248;2022-07-23T13:49:41;6.53;;;5.82;;
15246;SDS011;7726;48.820;9.248;2022-07-23T13:52:08;6.47;;;5.85;;
15246;SDS011;7726;48.820;9.248;2022-07-23T13:54:36;6.63;;;6.03;;
15246;SDS011;7726;48.820;9.248;2022-07-23T13:57:03;5.90;;;5.50;;
15246;SDS011;7726;48.820;9.248;2022-07-23T13:59:30;6.40;;;5.90;;
15246;SDS011;7726;48.820;9.248;2022-07-23T14:01:59;6.20;;;5.70;;
15246;SDS011;7726;48.820;9.248;2022-07-23T14:04:26;6.18;;;5.68;;
15246;SDS011;7726;48.820;9.248;2022-07-23T14:06:53;6.63;;;6.13;;
15246;SDS011;7726;48.820;9.248;2022-07-23T14:09:20;6.53;;;6.03;;
15246;SDS011;7726;48.820;9.248;2022-07-23T14:11:48;6.55;;;5.97;;
15246;SDS011;7726;48.820;9.248;2022-07-23T14:14:16;6.45;;;5.85;;
15246;SDS011;7726;48.820;9.248;2022-07-23T14:16:43;6.40;;;5.90;;
15246;SDS011;7726;48.820;9.248;2022-07-23T14:19:11;6.45;;;5.55;;
15246;SDS011;7726;48.820;9.248;2022-07-23T14:21:39;6.57;;;5.97;;
15246;SDS011;7726;48.820;9.248;2022-07-23T14:24:06;5.90;;;5.40;;
15246;SDS011;7726;48.820;9.248;2022-07-23T14:26:33;5.97;;;5.47;;
15246;SDS011;7726;48.820;9.248;2022-07-23T14:29:01;6.20;;;5.60;;
15246;SDS011;7726;48.820;9.248;2022-07-23T14:31:28;6.88;;;6.13;;
15246;SDS011;7726;48.820;9.248;2022-07-23T14:33:55;6.75;;;6.15;;
15246;SDS011;7726;48.820;9.248;2022-07-23T14:36:24;5.90;;;5.47;;
15246;SDS011;7726;48.820;9.248;2022-07-23T14:38:51;6.03;;;5.47;;
15246;SDS011;7726;48.820;9.248;2022-07-23T14:41:18;6.32;;;5.82;;
15246;SDS011;7726;48.820;9.248;2022-07-23T14:43:45;6.50;;;5.90;;
15246;SDS011;7726;48.820;9.248;2022-07-23T14:46:13;6.55;;;5.95;;
15246;SDS011;7726;48.820;9.248;2022-07-23T14:48:41;5.80;;;5.40;;
15246;SDS011;7726;48.820;9.248;2022-07-23T14:51:08;6.35;;;5.80;;
15246;SDS011;7726;48.820;9.248;2022-07-23T14:53:36;6.18;;;5.30;;
15246;SDS011;7726;48.820;9.248;2022-07-23T14:56:04;5.95;;;5.47;;
15246;SDS011;7726;48.820;9.248;2022-07-23T14:58:31;7.38;;;5.72;;
15246;SDS011;7726;48.820;9.248;2022-07-23T15:00:58;6.22;;;5.50;;
15246;SDS011;7726;48.820;9.248;2022-07-23T15:03:25;5.88;;;5.38;;
15246;SDS011;7726;48.820;9.248;2022-07-23T15:05:53;6.20;;;5.70;;
15246;SDS011;7726;48.820;9.248;2022-07-23T15:08:20;6.75;;;5.93;;
15246;SDS011;7726;48.820;9.248;2022-07-23T15:10:48;6.80;;;5.22;;
15246;SDS011;7726;48.820;9.248;2022-07-23T15:13:16;6.40;;;5.90;;
15246;SDS011;7726;48.820;9.248;2022-07-23T15:15:43;6.05;;;5.53;;